createdAt,value
2019-03-10T00:02:14.732Z,97669.85
2019-03-10T00:07:19.776Z,97662.11
2019-03-10T00:12:24.516Z,97680.62
2019-03-10T00:17:29.269Z,97677.66
2019-03-10T00:22:34.520Z,97685.92
2019-03-10T00:27:39.601Z,97688.19
2019-03-10T00:32:45.674Z,97692.77
2019-03-10T00:37:50.282Z,97683.74
2019-03-10T00:43:10.901Z,97678.31
2019-03-10T00:48:38.946Z,97664.03
2019-03-10T00:53:43.837Z,97676.83
2019-03-10T00:58:48.558Z,97678.70
2019-03-10T01:03:53.527Z,97670.90
2019-03-10T01:08:58.165Z,97672.00
2019-03-10T01:14:03.314Z,97663.86
2019-03-10T01:19:14.209Z,97683.91
2019-03-10T01:24:20.093Z,97689.44
2019-03-10T01:29:26.386Z,97673.70
2019-03-10T01:34:49.320Z,97671.81
2019-03-10T01:39:54.893Z,97652.80
2019-03-10T01:45:03.379Z,97631.13
2019-03-10T01:50:11.230Z,97615.48
2019-03-10T01:55:16.347Z,97610.13
2019-03-10T02:00:22.359Z,97608.66
2019-03-10T02:05:27.308Z,97620.66
2019-03-10T02:10:32.462Z,97630.89
2019-03-10T02:15:37.198Z,97629.69
2019-03-10T02:20:41.840Z,97636.69
2019-03-10T02:25:47.485Z,97634.94
2019-03-10T02:30:52.658Z,97634.06
2019-03-10T02:35:58.558Z,97638.45
2019-03-10T02:41:03.293Z,97647.50
2019-03-10T02:46:08.013Z,97651.86
2019-03-10T02:51:13.063Z,97653.80
2019-03-10T02:56:18.935Z,97670.23
2019-03-10T03:01:23.879Z,97683.75
2019-03-10T03:06:28.532Z,97678.34
2019-03-10T03:11:33.277Z,97660.81
2019-03-10T03:16:37.912Z,97661.47
2019-03-10T03:21:43.896Z,97659.63
2019-03-10T03:26:48.825Z,97672.11
2019-03-10T03:31:53.488Z,97673.05
2019-03-10T03:36:58.214Z,97673.93
2019-03-10T03:42:02.960Z,97686.82
2019-03-10T03:47:08.733Z,97695.42
2019-03-10T03:52:13.567Z,97695.89
2019-03-10T03:57:19.436Z,97692.20
2019-03-10T04:02:25.714Z,97702.58
2019-03-10T04:07:31.485Z,97709.02
2019-03-10T04:12:37.058Z,97715.34
2019-03-10T04:17:41.692Z,97715.66
2019-03-10T04:22:47.051Z,97725.35
2019-03-10T04:27:52.902Z,97728.49
2019-03-10T04:32:57.658Z,97735.64
2019-03-10T04:38:02.399Z,97730.00
2019-03-10T04:43:07.147Z,97735.47
2019-03-10T04:48:15.119Z,97762.81
2019-03-10T04:53:20.211Z,97780.36
2019-03-10T04:58:26.087Z,97792.08
2019-03-10T05:03:31.043Z,97769.56
2019-03-10T05:08:36.037Z,97759.94
2019-03-10T05:13:41.763Z,97780.94
2019-03-10T05:18:48.828Z,97783.08
2019-03-10T05:23:54.082Z,97798.93
2019-03-10T05:29:00.016Z,97796.45
2019-03-10T05:34:05.944Z,97790.85
2019-03-10T05:39:10.683Z,97800.52
2019-03-10T05:44:15.528Z,97812.63
2019-03-10T05:49:20.581Z,97824.97
2019-03-10T05:54:25.834Z,97814.72
2019-03-10T05:59:30.580Z,97833.86
2019-03-10T06:04:35.322Z,97845.60
2019-03-10T06:09:40.196Z,97851.11
2019-03-10T06:14:47.386Z,97858.05
2019-03-10T06:19:55.975Z,97872.83
2019-03-10T06:25:07.308Z,97871.66
2019-03-10T06:30:17.556Z,97888.30
2019-03-10T06:35:26.653Z,97894.62
2019-03-10T06:40:32.673Z,97890.03
2019-03-10T06:45:38.868Z,97887.72
2019-03-10T06:50:43.722Z,97904.09
2019-03-10T06:55:48.605Z,97916.83
2019-03-10T07:00:53.709Z,97919.06
2019-03-10T07:05:58.766Z,97908.66
2019-03-10T07:11:04.517Z,97915.94
2019-03-10T07:16:09.498Z,97919.64
2019-03-10T07:21:15.248Z,97914.26
2019-03-10T07:26:20.558Z,97912.34
2019-03-10T07:31:29.474Z,97913.37
2019-03-10T07:36:45.250Z,97911.33
2019-03-10T07:41:54.697Z,97906.30
2019-03-10T07:47:17.466Z,97894.92
2019-03-10T07:52:39.315Z,97890.69
2019-03-10T07:58:00.745Z,97878.27
2019-03-10T08:03:23.307Z,97871.09
2019-03-10T08:08:33.159Z,97871.16
2019-03-10T08:13:39.760Z,97859.48
2019-03-10T08:18:46.247Z,97857.83
2019-03-10T08:24:09.315Z,97846.46
2019-03-10T08:29:32.082Z,97835.77
2019-03-10T08:34:47.477Z,97822.56
2019-03-10T08:39:56.112Z,97817.20
2019-03-10T08:45:08.635Z,97825.06
2019-03-10T08:50:17.882Z,97821.72
2019-03-10T08:55:40.857Z,97813.59
2019-03-10T09:01:06.488Z,97820.87
2019-03-10T09:06:15.442Z,97820.45
2019-03-10T09:11:24.890Z,97823.73
2019-03-10T09:16:43.764Z,97816.42
2019-03-10T09:22:06.157Z,97818.34
2019-03-10T09:27:25.091Z,97810.11
2019-03-10T09:32:31.373Z,97799.92
2019-03-10T09:37:49.839Z,97783.14
2019-03-10T09:43:11.170Z,97759.60
2019-03-10T09:48:26.770Z,97738.93
2019-03-10T09:53:36.034Z,97733.66
2019-03-10T09:58:57.452Z,97733.34
2019-03-10T10:04:07.413Z,97731.42
2019-03-10T10:09:16.775Z,97722.61
2019-03-10T10:14:39.643Z,97712.05
2019-03-10T10:20:01.398Z,97711.95
2019-03-10T10:25:08.790Z,97711.61
2019-03-10T10:30:15.891Z,97697.42
2019-03-10T10:35:22.170Z,97691.41
2019-03-10T10:40:37.573Z,97682.67
2019-03-10T10:45:46.830Z,97670.38
2019-03-10T10:50:57.510Z,97670.66
2019-03-10T10:56:12.899Z,97651.39
2019-03-10T11:01:35.857Z,97655.28
2019-03-10T11:06:48.392Z,97645.30
2019-03-10T11:12:12.918Z,97628.95
2019-03-10T11:17:19.275Z,97621.47
2019-03-10T11:22:32.010Z,97626.13
2019-03-10T11:27:41.156Z,97622.83
2019-03-10T11:32:48.703Z,97593.16
2019-03-10T11:38:08.867Z,97585.53
2019-03-10T11:43:15.152Z,97570.47
2019-03-10T11:48:33.627Z,97559.72
2019-03-10T11:53:43.382Z,97550.45
2019-03-10T11:58:49.759Z,97537.72
2019-03-10T12:04:14.273Z,97516.09
2019-03-10T12:09:21.267Z,97509.58
2019-03-10T12:14:26.005Z,97514.94
2019-03-10T12:19:31.035Z,97510.86
2019-03-10T12:24:35.606Z,97485.53
2019-03-10T12:29:40.251Z,97476.75
2019-03-10T12:34:44.857Z,97466.23
2019-03-10T12:39:49.931Z,97447.80
2019-03-10T12:44:54.525Z,97439.23
2019-03-10T12:49:59.339Z,97431.75
2019-03-10T12:55:05.401Z,97422.76
2019-03-10T13:00:14.567Z,97400.27
2019-03-10T13:05:21.022Z,97391.44
2019-03-10T13:10:25.874Z,97374.72
2019-03-10T13:15:32.611Z,97368.89
2019-03-10T13:20:37.404Z,97359.27
2019-03-10T13:25:43.014Z,97331.69
2019-03-10T13:30:47.817Z,97304.39
2019-03-10T13:35:52.459Z,97300.34
2019-03-10T13:40:57.201Z,97292.63
2019-03-10T13:46:01.946Z,97290.69
2019-03-10T13:51:06.689Z,97279.48
2019-03-10T13:56:11.433Z,97270.69
2019-03-10T14:01:16.195Z,97266.34
2019-03-10T14:06:20.925Z,97253.48
2019-03-10T14:11:25.663Z,97244.22
2019-03-10T14:16:30.314Z,97241.52
2019-03-10T14:21:35.164Z,97238.45
2019-03-10T14:26:40.210Z,97231.16
2019-03-10T14:31:44.946Z,97224.13
2019-03-10T14:36:49.795Z,97223.53
2019-03-10T14:41:54.542Z,97214.48
2019-03-10T14:46:59.288Z,97213.51
2019-03-10T14:52:04.028Z,97199.45
2019-03-10T14:57:09.018Z,97181.67
2019-03-10T15:02:14.146Z,97177.50
2019-03-10T15:07:18.766Z,97172.55
2019-03-10T15:12:25.052Z,97166.49
2019-03-10T15:17:30.223Z,97164.22
2019-03-10T15:22:35.457Z,97158.03
2019-03-10T15:27:40.048Z,97147.28
2019-03-10T15:32:44.756Z,97140.94
2019-03-10T15:37:50.414Z,97137.77
2019-03-10T15:42:55.354Z,97135.94
2019-03-10T15:48:00.515Z,97139.55
2019-03-10T15:53:05.752Z,97131.19
2019-03-10T15:58:10.418Z,97127.77
2019-03-10T16:03:16.686Z,97121.15
2019-03-10T16:08:21.701Z,97122.55
2019-03-10T16:13:26.487Z,97120.92
2019-03-10T16:18:31.148Z,97118.06
2019-03-10T16:23:35.772Z,97112.63
2019-03-10T16:28:40.368Z,97112.69
2019-03-10T16:33:45.149Z,97110.02
2019-03-10T16:38:52.269Z,97109.28
2019-03-10T16:43:57.979Z,97110.30
2019-03-10T16:49:06.392Z,97115.98
2019-03-10T16:54:11.704Z,97113.33
2019-03-10T16:59:16.454Z,97117.12
2019-03-10T17:04:23.570Z,97122.06
2019-03-10T17:09:29.390Z,97101.67
2019-03-10T17:14:34.160Z,97106.81
2019-03-10T17:19:38.905Z,97096.36
2019-03-10T17:24:44.059Z,97086.64
2019-03-10T17:29:50.788Z,97090.91
2019-03-10T17:34:56.339Z,97081.66
2019-03-10T17:40:01.355Z,97077.39
2019-03-10T17:45:10.274Z,97060.26
2019-03-10T17:50:17.085Z,97046.84
2019-03-10T17:55:23.979Z,97053.75
2019-03-10T18:00:36.692Z,97057.24
2019-03-10T18:05:44.653Z,97048.91
2019-03-10T18:10:50.541Z,97039.44
2019-03-10T18:15:55.453Z,97024.78
2019-03-10T18:21:00.343Z,97006.72
2019-03-10T18:26:06.070Z,97000.59
2019-03-10T18:31:11.056Z,96997.04
2019-03-10T18:36:15.994Z,96996.91
2019-03-10T18:41:20.714Z,96990.07
2019-03-10T18:46:26.473Z,96996.33
2019-03-10T18:51:35.562Z,96980.31
2019-03-10T18:56:40.682Z,96981.86
2019-03-10T19:01:45.417Z,96976.47
2019-03-10T19:06:50.166Z,96966.81
2019-03-10T19:11:54.907Z,96973.45
2019-03-10T19:17:01.356Z,96967.45
2019-03-10T19:22:07.198Z,96961.22
2019-03-10T19:27:13.232Z,96950.44
2019-03-10T19:32:17.884Z,96954.95
2019-03-10T19:37:23.494Z,96956.98
2019-03-10T19:42:28.239Z,96949.63
2019-03-10T19:47:33.029Z,96938.40
2019-03-10T19:52:37.666Z,96934.73
2019-03-10T19:57:42.409Z,96920.38
2019-03-10T20:02:47.158Z,96922.90
2019-03-10T20:07:51.859Z,96911.09
2019-03-10T20:12:56.744Z,96910.55
2019-03-10T20:18:01.820Z,96915.56
2019-03-10T20:23:06.844Z,96911.78
2019-03-10T20:28:11.898Z,96904.99
2019-03-10T20:33:17.040Z,96900.86
2019-03-10T20:38:21.818Z,96888.91
2019-03-10T20:43:27.057Z,96896.84
2019-03-10T20:48:31.803Z,96889.92
2019-03-10T20:53:37.898Z,96883.20
2019-03-10T20:58:44.251Z,96902.94
2019-03-10T21:03:50.143Z,96897.29
2019-03-10T21:08:56.899Z,96902.97
2019-03-10T21:14:02.315Z,96900.25
2019-03-10T21:19:06.913Z,96923.78
2019-03-10T21:24:11.715Z,96918.48
2019-03-10T21:29:16.736Z,96907.52
2019-03-10T21:34:22.578Z,96914.56
2019-03-10T21:39:34.612Z,96909.38
2019-03-10T21:44:33.602Z,96912.67
2019-03-10T21:49:38.338Z,96929.77
2019-03-10T21:54:43.713Z,96938.89
2019-03-10T21:59:48.444Z,96938.95
2019-03-10T22:04:53.598Z,96950.67
2019-03-10T22:09:58.343Z,96945.44
2019-03-10T22:15:03.083Z,96948.41
2019-03-10T22:20:11.623Z,96944.64
2019-03-10T22:25:16.797Z,96932.02
2019-03-10T22:30:23.184Z,96943.76
2019-03-10T22:35:29.325Z,96932.55
2019-03-10T22:40:34.070Z,96935.69
2019-03-10T22:45:39.023Z,96938.80
2019-03-10T22:50:43.866Z,96938.80
2019-03-10T23:01:00.629Z,96952.91
2019-03-10T23:06:06.592Z,96928.09
2019-03-10T23:11:11.339Z,96925.14
2019-03-10T23:16:16.082Z,96920.95
2019-03-10T23:21:21.134Z,96943.84
2019-03-10T23:26:27.048Z,96961.31
2019-03-10T23:31:32.155Z,96974.48
2019-03-10T23:36:37.029Z,97001.98
2019-03-10T23:41:41.907Z,97011.03
2019-03-10T23:46:46.692Z,97017.47
2019-03-10T23:51:51.472Z,97036.86
2019-03-10T23:56:56.286Z,97044.37
